createdAt,value
2018-12-03T00:00:19.445Z,10.00
2018-12-03T00:02:48.145Z,6.90
2018-12-03T00:05:16.914Z,6.43
2018-12-03T00:07:45.530Z,7.53
2018-12-03T00:10:14.237Z,4.83
2018-12-03T00:12:42.744Z,5.47
2018-12-03T00:15:11.251Z,8.13
2018-12-03T00:17:39.850Z,9.00
2018-12-03T00:20:09.637Z,5.67
2018-12-03T00:22:38.106Z,8.30
2018-12-03T00:25:07.755Z,7.30
2018-12-03T00:27:36.526Z,8.17
2018-12-03T00:30:08.803Z,4.80
2018-12-03T00:32:37.774Z,7.13
2018-12-03T00:35:08.195Z,9.33
2018-12-03T00:37:36.910Z,9.70
2018-12-03T00:40:06.834Z,9.30
2018-12-03T00:42:35.580Z,11.97
2018-12-03T00:45:04.239Z,10.63
2018-12-03T00:47:32.726Z,10.77
2018-12-03T00:50:01.196Z,9.50
2018-12-03T00:52:29.681Z,8.47
2018-12-03T00:54:58.167Z,8.93
2018-12-03T00:57:26.634Z,8.63
2018-12-03T00:59:55.132Z,5.03
2018-12-03T01:02:24.967Z,5.00
2018-12-03T01:04:54.167Z,8.50
2018-12-03T01:07:22.997Z,4.70
2018-12-03T01:09:51.597Z,5.57
2018-12-03T01:12:20.279Z,4.57
2018-12-03T01:14:48.831Z,4.73
2018-12-03T01:17:17.334Z,5.90
2018-12-03T01:19:45.834Z,6.97
2018-12-03T01:22:14.307Z,10.70
2018-12-03T01:24:42.773Z,5.50
2018-12-03T01:27:11.290Z,8.37
2018-12-03T01:29:39.762Z,5.80
2018-12-03T01:32:08.270Z,4.93
2018-12-03T01:34:36.836Z,3.53
2018-12-03T01:37:05.397Z,6.03
2018-12-03T01:39:33.882Z,4.03
2018-12-03T01:42:02.370Z,3.47
2018-12-03T01:44:30.890Z,3.00
2018-12-03T01:46:59.443Z,3.77
2018-12-03T01:49:27.922Z,3.63
2018-12-03T01:51:56.420Z,2.57
2018-12-03T01:54:24.916Z,3.93
2018-12-03T01:56:53.414Z,4.07
2018-12-03T01:59:21.878Z,5.27
2018-12-03T02:01:50.380Z,8.07
2018-12-03T02:04:18.868Z,6.80
2018-12-03T02:06:47.395Z,8.80
2018-12-03T02:09:15.862Z,7.97
2018-12-03T02:11:44.368Z,6.33
2018-12-03T02:14:13.049Z,5.53
2018-12-03T02:16:41.828Z,8.47
2018-12-03T02:19:10.414Z,6.60
2018-12-03T02:21:38.883Z,6.57
2018-12-03T02:24:07.381Z,12.23
2018-12-03T02:26:36.094Z,8.43
2018-12-03T02:29:04.932Z,11.90
2018-12-03T02:31:33.430Z,10.73
2018-12-03T02:34:02.096Z,10.30
2018-12-03T02:36:30.582Z,5.60
2018-12-03T02:38:59.081Z,7.37
2018-12-03T02:41:27.610Z,9.00
2018-12-03T02:43:56.259Z,10.50
2018-12-03T02:46:24.748Z,11.43
2018-12-03T02:48:53.284Z,11.73
2018-12-03T02:51:21.759Z,10.10
2018-12-03T02:53:50.237Z,9.80
2018-12-03T02:56:18.761Z,11.20
2018-12-03T02:58:47.237Z,14.10
2018-12-03T03:01:15.792Z,14.37
2018-12-03T03:03:44.405Z,12.50
2018-12-03T03:06:13.175Z,17.70
2018-12-03T03:08:41.663Z,16.93
2018-12-03T03:11:10.137Z,15.57
2018-12-03T03:16:12.627Z,20.77
2018-12-03T03:18:41.121Z,20.13
2018-12-03T03:21:09.610Z,19.53
2018-12-03T03:23:38.094Z,16.27
2018-12-03T03:26:07.089Z,20.47
2018-12-03T03:28:35.568Z,16.70
2018-12-03T03:31:04.252Z,14.90
2018-12-03T03:33:32.744Z,19.53
2018-12-03T03:36:01.261Z,15.37
2018-12-03T03:38:29.737Z,14.67
2018-12-03T03:40:58.279Z,13.23
2018-12-03T03:43:26.790Z,17.33
2018-12-03T03:45:55.339Z,16.53
2018-12-03T03:48:23.898Z,14.07
2018-12-03T03:50:52.741Z,23.47
2018-12-03T03:53:21.239Z,20.90
2018-12-03T03:55:49.747Z,22.07
2018-12-03T03:58:18.342Z,21.03
2018-12-03T04:00:46.902Z,21.07
2018-12-03T04:03:15.615Z,24.63
2018-12-03T04:05:44.103Z,18.80
2018-12-03T04:08:12.647Z,23.63
2018-12-03T04:10:41.134Z,23.23
2018-12-03T04:13:09.704Z,26.57
2018-12-03T04:15:38.242Z,22.37
2018-12-03T04:18:07.037Z,29.00
2018-12-03T04:20:35.491Z,24.73
2018-12-03T04:23:04.012Z,23.17
2018-12-03T04:25:32.523Z,21.97
2018-12-03T04:28:01.161Z,25.37
2018-12-03T04:30:29.633Z,21.43
2018-12-03T04:32:58.123Z,26.00
2018-12-03T04:35:27.927Z,18.33
2018-12-03T04:37:56.483Z,21.87
2018-12-03T04:40:25.011Z,37.00
2018-12-03T04:42:53.681Z,26.33
2018-12-03T04:45:22.159Z,22.43
2018-12-03T04:47:51.068Z,19.60
2018-12-03T04:50:20.766Z,20.83
2018-12-03T04:52:49.311Z,22.43
2018-12-03T04:55:18.961Z,22.67
2018-12-03T04:57:47.483Z,23.10
2018-12-03T05:00:18.011Z,22.27
2018-12-03T05:02:48.075Z,24.17
2018-12-03T05:05:16.708Z,24.20
2018-12-03T05:07:45.245Z,29.17
2018-12-03T05:10:16.928Z,26.63
2018-12-03T05:12:46.825Z,31.00
2018-12-03T05:15:15.501Z,31.13
2018-12-03T05:17:44.599Z,21.40
2018-12-03T05:20:20.244Z,24.50
2018-12-03T05:22:48.748Z,24.90
2018-12-03T05:25:19.385Z,24.40
2018-12-03T05:27:45.797Z,33.10
2018-12-03T05:30:15.654Z,33.10
2018-12-03T05:32:44.808Z,27.10
2018-12-03T05:35:19.820Z,31.23
2018-12-03T05:37:48.324Z,25.97
2018-12-03T05:40:19.396Z,24.37
2018-12-03T05:42:47.951Z,35.33
2018-12-03T05:45:16.486Z,29.97
2018-12-03T05:47:45.372Z,23.17
2018-12-03T05:50:15.065Z,25.57
2018-12-03T05:52:44.616Z,31.17
2018-12-03T05:55:13.644Z,24.43
2018-12-03T05:57:42.720Z,24.27
2018-12-03T06:00:12.882Z,25.53
2018-12-03T06:02:41.404Z,31.87
2018-12-03T06:05:11.076Z,32.00
2018-12-03T06:07:39.622Z,28.37
2018-12-03T06:10:24.831Z,23.73
2018-12-03T06:12:53.327Z,23.20
2018-12-03T06:15:22.282Z,29.47
2018-12-03T06:17:52.984Z,35.73
2018-12-03T06:20:22.232Z,35.17
2018-12-03T06:22:51.857Z,33.77
2018-12-03T06:25:22.762Z,30.93
2018-12-03T06:27:51.270Z,29.13
2018-12-03T06:30:21.522Z,30.30
2018-12-03T06:32:50.090Z,33.40
2018-12-03T06:35:19.023Z,31.27
2018-12-03T06:37:48.074Z,34.17
2018-12-03T06:40:17.945Z,29.13
2018-12-03T06:42:46.558Z,33.93
2018-12-03T06:45:17.349Z,27.43
2018-12-03T06:47:48.450Z,30.67
2018-12-03T06:50:16.946Z,31.47
2018-12-03T06:52:45.620Z,32.13
2018-12-03T06:55:14.124Z,36.37
2018-12-03T06:57:42.632Z,29.37
2018-12-03T07:00:14.625Z,31.63
2018-12-03T07:02:43.613Z,34.83
2018-12-03T07:05:12.371Z,33.93
2018-12-03T07:07:41.655Z,37.40
2018-12-03T07:10:13.525Z,27.00
2018-12-03T07:12:42.436Z,28.07
2018-12-03T07:15:12.455Z,24.20
2018-12-03T07:17:40.945Z,28.40
2018-12-03T07:20:12.546Z,27.93
2018-12-03T07:22:41.495Z,32.67
2018-12-03T07:25:11.213Z,22.97
2018-12-03T07:27:39.797Z,28.93
2018-12-03T07:30:24.266Z,23.40
2018-12-03T07:32:53.059Z,31.80
2018-12-03T07:35:22.756Z,25.77
2018-12-03T07:37:52.874Z,20.70
2018-12-03T07:40:21.381Z,29.13
2018-12-03T07:42:49.895Z,26.83
2018-12-03T07:45:20.791Z,27.70
2018-12-03T07:47:49.289Z,26.03
2018-12-03T07:50:19.050Z,21.20
2018-12-03T07:52:47.592Z,26.53
2018-12-03T07:55:22.352Z,30.47
2018-12-03T07:58:00.414Z,24.50
2018-12-03T08:00:30.806Z,30.77
2018-12-03T08:02:59.308Z,26.43
2018-12-03T08:05:28.064Z,28.93
2018-12-03T08:07:56.733Z,31.37
2018-12-03T08:10:25.224Z,29.87
2018-12-03T08:12:54.119Z,27.73
2018-12-03T08:15:23.042Z,26.93
2018-12-03T08:17:53.544Z,31.37
2018-12-03T08:21:28.231Z,27.33
2018-12-03T08:24:05.877Z,28.00
2018-12-03T08:26:34.388Z,31.23
2018-12-03T08:29:02.905Z,26.67
2018-12-03T08:31:31.377Z,25.43
2018-12-03T08:34:00.042Z,26.53
2018-12-03T08:36:28.546Z,28.43
2018-12-03T08:38:57.027Z,23.40
2018-12-03T08:41:25.559Z,29.50
2018-12-03T08:43:54.043Z,27.27
2018-12-03T08:46:22.539Z,23.87
2018-12-03T08:48:51.087Z,22.27
2018-12-03T08:51:19.599Z,23.97
2018-12-03T08:53:48.965Z,23.53
2018-12-03T08:56:17.469Z,19.53
2018-12-03T08:58:46.081Z,23.57
2018-12-03T09:01:16.593Z,28.83
2018-12-03T09:03:48.311Z,25.90
2018-12-03T09:06:16.811Z,25.07
2018-12-03T09:08:48.363Z,31.40
2018-12-03T09:11:18.073Z,26.40
2018-12-03T09:13:46.774Z,29.33
2018-12-03T09:16:15.252Z,37.83
2018-12-03T09:18:43.876Z,28.70
2018-12-03T09:21:13.865Z,30.27
2018-12-03T09:23:43.644Z,29.20
2018-12-03T09:26:12.789Z,28.73
2018-12-03T09:28:41.285Z,28.27
2018-12-03T09:31:39.766Z,20.80
2018-12-03T09:34:07.270Z,19.07
2018-12-03T09:36:34.772Z,25.33
2018-12-03T09:39:02.289Z,21.67
2018-12-03T09:41:30.320Z,19.57
2018-12-03T09:43:57.814Z,19.80
2018-12-03T09:46:25.373Z,21.90
2018-12-03T09:48:54.848Z,15.00
2018-12-03T09:51:24.318Z,21.00
2018-12-03T09:53:52.654Z,22.27
2018-12-03T09:56:20.160Z,22.27
2018-12-03T09:58:47.660Z,20.73
2018-12-03T10:01:15.172Z,22.10
2018-12-03T10:03:42.668Z,18.27
2018-12-03T10:06:10.234Z,17.87
2018-12-03T10:08:37.737Z,22.93
2018-12-03T10:11:05.235Z,14.20
2018-12-03T10:13:32.727Z,22.40
2018-12-03T10:16:00.815Z,14.97
2018-12-03T10:18:28.315Z,14.43
2018-12-03T10:20:55.817Z,19.07
2018-12-03T10:23:23.320Z,18.00
2018-12-03T10:25:50.994Z,17.07
2018-12-03T10:28:18.497Z,16.33
2018-12-03T10:30:45.995Z,13.50
2018-12-03T10:33:15.295Z,14.67
2018-12-03T10:35:42.802Z,15.27
2018-12-03T10:38:10.403Z,16.77
2018-12-03T10:40:38.575Z,16.40
2018-12-03T10:43:08.902Z,16.60
2018-12-03T10:45:36.453Z,13.53
2018-12-03T10:48:03.958Z,14.60
2018-12-03T10:50:32.105Z,20.03
2018-12-03T10:52:59.604Z,18.43
2018-12-03T10:55:27.114Z,14.40
2018-12-03T10:57:54.667Z,18.97
2018-12-03T11:00:24.141Z,19.27
2018-12-03T11:02:57.440Z,16.43
2018-12-03T11:08:30.525Z,15.57
2018-12-03T11:10:58.026Z,16.93
2018-12-03T11:13:25.532Z,15.20
2018-12-03T11:15:53.040Z,16.60
2018-12-03T11:18:20.561Z,19.27
2018-12-03T11:20:48.171Z,14.97
2018-12-03T11:23:16.342Z,25.17
2018-12-03T11:25:43.844Z,20.90
2018-12-03T11:28:12.336Z,18.03
2018-12-03T11:30:42.066Z,19.47
2018-12-03T11:33:09.565Z,23.93
2018-12-03T11:35:37.077Z,18.43
2018-12-03T11:38:05.754Z,15.83
2018-12-03T11:40:34.094Z,18.10
2018-12-03T11:43:01.598Z,14.50
2018-12-03T11:45:29.107Z,15.50
2018-12-03T11:47:56.608Z,12.80
2018-12-03T11:50:24.108Z,7.27
2018-12-03T11:52:51.613Z,13.70
2018-12-03T11:55:19.104Z,7.93
2018-12-03T11:57:46.608Z,12.80
2018-12-03T12:00:15.184Z,14.83
2018-12-03T12:02:42.700Z,7.77
2018-12-03T12:05:10.197Z,8.50
2018-12-03T12:07:42.374Z,7.93
2018-12-03T12:10:07.817Z,5.50
2018-12-03T12:12:35.308Z,8.80
2018-12-03T12:15:03.073Z,7.60
2018-12-03T12:17:30.580Z,15.37
2018-12-03T12:19:58.079Z,9.33
2018-12-03T12:22:25.579Z,7.40
2018-12-03T12:24:53.096Z,14.10
2018-12-03T12:27:20.600Z,15.13
2018-12-03T12:29:48.109Z,13.30
2018-12-03T12:32:15.622Z,13.83
2018-12-03T12:34:43.121Z,14.20
2018-12-03T12:37:10.627Z,17.10
2018-12-03T12:39:38.117Z,13.40
2018-12-03T12:42:05.693Z,13.57
2018-12-03T12:44:33.188Z,12.90
2018-12-03T12:47:00.694Z,12.50
2018-12-03T12:49:28.190Z,14.90
2018-12-03T12:51:55.692Z,12.23
2018-12-03T12:54:23.205Z,11.87
2018-12-03T12:56:50.711Z,10.80
2018-12-03T12:59:18.208Z,8.77
2018-12-03T13:01:45.716Z,10.73
2018-12-03T13:04:13.538Z,12.57
2018-12-03T13:06:41.045Z,11.00
2018-12-03T13:09:09.490Z,11.40
2018-12-03T13:11:36.998Z,10.20
2018-12-03T13:14:04.928Z,10.43
2018-12-03T13:16:33.010Z,10.50
2018-12-03T13:19:00.532Z,14.00
2018-12-03T13:21:28.060Z,10.27
2018-12-03T13:23:55.589Z,10.63
2018-12-03T13:26:23.114Z,12.30
2018-12-03T13:28:50.616Z,13.43
2018-12-03T13:31:18.120Z,11.03
2018-12-03T13:33:45.619Z,15.00
2018-12-03T13:36:13.114Z,20.53
2018-12-03T13:38:40.617Z,12.77
2018-12-03T13:41:08.125Z,11.73
2018-12-03T13:43:35.744Z,18.57
2018-12-03T13:46:03.248Z,15.57
2018-12-03T13:48:30.754Z,18.90
2018-12-03T13:50:58.328Z,13.63
2018-12-03T13:53:25.829Z,17.13
2018-12-03T13:55:54.214Z,17.43
2018-12-03T13:58:21.857Z,20.13
2018-12-03T14:00:49.356Z,19.37
2018-12-03T14:03:16.854Z,13.97
2018-12-03T14:05:44.403Z,21.07
2018-12-03T14:08:12.476Z,18.53
2018-12-03T14:10:41.216Z,19.33
2018-12-03T14:13:08.709Z,17.33
2018-12-03T14:15:36.846Z,20.27
2018-12-03T14:18:06.375Z,23.70
2018-12-03T14:20:33.877Z,18.93
2018-12-03T14:23:01.451Z,23.30
2018-12-03T14:25:28.953Z,20.77
2018-12-03T14:27:56.455Z,19.03
2018-12-03T14:30:23.993Z,19.87
2018-12-03T14:32:51.549Z,17.80
2018-12-03T14:35:19.055Z,19.00
2018-12-03T14:37:46.589Z,22.30
2018-12-03T14:40:14.083Z,17.83
2018-12-03T14:42:41.578Z,26.10
2018-12-03T14:45:09.082Z,23.63
2018-12-03T14:47:36.583Z,18.83
2018-12-03T14:50:05.209Z,22.20
2018-12-03T14:52:32.713Z,22.53
2018-12-03T14:55:00.213Z,22.77
2018-12-03T14:57:27.713Z,23.90
2018-12-03T14:59:55.304Z,24.10
2018-12-03T15:02:22.977Z,21.03
2018-12-03T15:04:50.505Z,20.20
2018-12-03T15:07:18.052Z,21.60
2018-12-03T15:09:45.545Z,21.33
2018-12-03T15:12:13.534Z,19.63
2018-12-03T15:14:41.039Z,18.70
2018-12-03T15:17:08.542Z,18.67
2018-12-03T15:19:36.034Z,19.30
2018-12-03T15:22:03.530Z,24.17
2018-12-03T15:24:31.052Z,28.63
2018-12-03T15:26:58.563Z,22.50
2018-12-03T15:29:26.070Z,20.47
2018-12-03T15:31:53.606Z,15.13
2018-12-03T15:34:21.110Z,25.03
2018-12-03T15:36:48.621Z,18.43
2018-12-03T15:39:16.122Z,22.53
2018-12-03T15:41:43.740Z,20.77
2018-12-03T15:44:11.248Z,21.13
2018-12-03T15:46:38.749Z,21.30
2018-12-03T15:49:06.246Z,19.40
2018-12-03T15:51:33.751Z,24.77
2018-12-03T15:54:01.252Z,24.33
2018-12-03T15:56:28.770Z,22.67
2018-12-03T15:58:56.307Z,22.77
2018-12-03T16:01:23.813Z,20.53
2018-12-03T16:03:51.543Z,22.17
2018-12-03T16:06:19.039Z,25.27
2018-12-03T16:08:46.537Z,24.57
2018-12-03T16:11:14.035Z,26.87
2018-12-03T16:13:41.535Z,22.00
2018-12-03T16:16:09.173Z,29.63
2018-12-03T16:18:36.726Z,22.17
2018-12-03T16:21:04.235Z,19.80
2018-12-03T16:23:31.729Z,29.10
2018-12-03T16:25:59.563Z,28.37
2018-12-03T16:28:27.063Z,32.47
2018-12-03T16:30:54.565Z,30.57
2018-12-03T16:33:22.079Z,29.83
2018-12-03T16:35:49.653Z,26.47
2018-12-03T16:38:17.663Z,24.40
2018-12-03T16:40:45.166Z,24.80
2018-12-03T16:43:12.665Z,31.50
2018-12-03T16:45:40.170Z,21.73
2018-12-03T16:48:07.681Z,26.20
2018-12-03T16:50:35.212Z,33.27
2018-12-03T16:53:02.717Z,26.77
2018-12-03T16:55:30.220Z,25.20
2018-12-03T16:57:57.737Z,26.83
2018-12-03T17:00:25.243Z,19.60
2018-12-03T17:02:52.745Z,31.13
2018-12-03T17:05:20.251Z,26.77
2018-12-03T17:07:47.758Z,26.97
2018-12-03T17:10:15.267Z,26.20
2018-12-03T17:12:42.768Z,34.07
2018-12-03T17:15:10.261Z,28.93
2018-12-03T17:17:37.773Z,24.40
2018-12-03T17:20:07.910Z,26.33
2018-12-03T17:22:35.418Z,26.57
2018-12-03T17:25:03.113Z,22.27
2018-12-03T17:27:30.612Z,24.10
2018-12-03T17:29:58.213Z,28.77
2018-12-03T17:32:25.769Z,26.03
2018-12-03T17:34:53.285Z,24.33
2018-12-03T17:37:20.775Z,28.53
2018-12-03T17:39:48.353Z,21.40
2018-12-03T17:42:15.861Z,29.33
2018-12-03T17:44:43.357Z,27.57
2018-12-03T17:47:17.939Z,24.67
2018-12-03T17:49:45.438Z,28.00
2018-12-03T17:52:12.933Z,21.97
2018-12-03T17:54:40.436Z,25.50
2018-12-03T17:57:07.948Z,24.40
2018-12-03T17:59:35.460Z,24.57
2018-12-03T18:02:03.816Z,21.03
2018-12-03T18:04:31.328Z,17.80
2018-12-03T18:06:58.841Z,23.57
2018-12-03T18:09:26.361Z,21.60
2018-12-03T18:11:53.863Z,21.73
2018-12-03T18:14:21.384Z,22.63
2018-12-03T18:16:48.891Z,23.37
2018-12-03T18:19:16.397Z,25.30
2018-12-03T18:21:43.905Z,21.83
2018-12-03T18:24:11.415Z,29.37
2018-12-03T18:26:38.919Z,16.07
2018-12-03T18:29:06.428Z,23.47
2018-12-03T18:31:34.039Z,18.90
2018-12-03T18:34:01.550Z,25.17
2018-12-03T18:36:29.050Z,25.53
2018-12-03T18:38:56.560Z,21.60
2018-12-03T18:41:24.062Z,25.67
2018-12-03T18:43:52.490Z,19.50
2018-12-03T18:46:20.064Z,24.93
2018-12-03T18:48:47.634Z,27.00
2018-12-03T18:51:15.145Z,25.63
2018-12-03T18:53:42.646Z,19.77
2018-12-03T18:56:10.150Z,23.43
2018-12-03T18:58:37.653Z,20.30
2018-12-03T19:01:05.164Z,19.33
2018-12-03T19:03:32.676Z,16.63
2018-12-03T19:06:00.182Z,21.20
2018-12-03T19:08:27.690Z,13.23
2018-12-03T19:10:55.242Z,19.30
2018-12-03T19:13:22.752Z,13.80
2018-12-03T19:15:50.257Z,16.73
2018-12-03T19:18:17.772Z,13.87
2018-12-03T19:20:45.299Z,14.47
2018-12-03T19:23:12.801Z,12.43
2018-12-03T19:25:40.307Z,12.17
2018-12-03T19:28:07.813Z,11.60
2018-12-03T19:30:35.323Z,11.93
2018-12-03T19:33:02.826Z,10.37
2018-12-03T19:35:30.329Z,14.30
2018-12-03T19:37:58.030Z,11.67
2018-12-03T19:40:25.715Z,9.13
2018-12-03T19:42:53.212Z,10.57
2018-12-03T19:45:20.869Z,8.40
2018-12-03T19:47:48.373Z,9.77
2018-12-03T19:50:15.875Z,11.50
2018-12-03T19:52:43.817Z,7.97
2018-12-03T19:55:11.453Z,7.47
2018-12-03T19:57:38.987Z,11.50
2018-12-03T20:00:08.643Z,10.20
2018-12-03T20:02:36.153Z,7.07
2018-12-03T20:05:05.790Z,11.43
2018-12-03T20:07:33.301Z,10.40
2018-12-03T20:10:00.811Z,12.70
2018-12-03T20:12:28.307Z,11.33
2018-12-03T20:14:56.862Z,10.13
2018-12-03T20:17:24.634Z,9.77
2018-12-03T20:19:52.125Z,8.27
2018-12-03T20:22:19.622Z,6.93
2018-12-03T20:24:47.123Z,12.00
2018-12-03T20:27:14.685Z,8.60
2018-12-03T20:29:42.453Z,8.27
2018-12-03T20:32:10.029Z,8.07
2018-12-03T20:34:37.595Z,6.60
2018-12-03T20:37:08.928Z,9.33
2018-12-03T20:39:40.371Z,8.97
2018-12-03T20:42:07.888Z,11.63
2018-12-03T20:44:35.384Z,9.33
2018-12-03T20:47:02.889Z,8.87
2018-12-03T20:49:30.661Z,6.23
2018-12-03T20:51:59.615Z,12.63
2018-12-03T20:54:27.113Z,8.83
2018-12-03T20:56:54.620Z,9.17
2018-12-03T20:59:22.127Z,10.53
2018-12-03T21:01:49.631Z,9.97
2018-12-03T21:04:19.129Z,11.20
2018-12-03T21:06:46.633Z,8.97
2018-12-03T21:09:14.140Z,9.50
2018-12-03T21:11:41.635Z,10.40
2018-12-03T21:14:09.135Z,11.73
2018-12-03T21:16:36.640Z,7.60
2018-12-03T21:19:04.133Z,9.03
2018-12-03T21:21:31.629Z,9.37
2018-12-03T21:23:59.133Z,8.53
2018-12-03T21:26:26.695Z,8.90
2018-12-03T21:28:54.192Z,6.40
2018-12-03T21:31:21.692Z,7.27
2018-12-03T21:33:49.179Z,6.87
2018-12-03T21:36:16.678Z,8.07
2018-12-03T21:38:44.173Z,5.73
2018-12-03T21:41:11.669Z,5.17
2018-12-03T21:43:39.211Z,4.63
2018-12-03T21:46:06.715Z,3.83
2018-12-03T21:48:34.217Z,7.77
2018-12-03T21:51:01.783Z,4.33
2018-12-03T21:53:29.282Z,5.40
2018-12-03T21:55:56.772Z,4.10
2018-12-03T21:58:24.278Z,4.33
2018-12-03T22:00:51.778Z,3.10
2018-12-03T22:03:19.279Z,3.30
2018-12-03T22:05:47.762Z,7.70
2018-12-03T22:08:15.264Z,7.30
2018-12-03T22:10:42.755Z,8.57
2018-12-03T22:13:10.336Z,5.57
2018-12-03T22:15:37.890Z,6.73
2018-12-03T22:18:05.388Z,7.20
2018-12-03T22:20:32.880Z,10.47
2018-12-03T22:23:00.544Z,6.47
2018-12-03T22:25:28.050Z,5.57
2018-12-03T22:27:55.592Z,8.53
2018-12-03T22:30:23.093Z,8.87
2018-12-03T22:32:50.591Z,10.17
2018-12-03T22:35:18.082Z,5.37
2018-12-03T22:37:45.574Z,9.67
2018-12-03T22:40:13.068Z,9.77
2018-12-03T22:42:40.558Z,5.70
2018-12-03T22:45:08.057Z,7.60
2018-12-03T22:47:35.572Z,8.33
2018-12-03T22:50:03.074Z,6.23
2018-12-03T22:52:30.566Z,6.57
2018-12-03T22:54:58.062Z,8.40
2018-12-03T22:57:25.553Z,8.00
2018-12-03T22:59:53.052Z,6.17
2018-12-03T23:02:21.384Z,6.30
2018-12-03T23:04:48.884Z,4.50
2018-12-03T23:07:16.370Z,6.83
2018-12-03T23:09:43.866Z,4.70
2018-12-03T23:12:11.358Z,7.93
2018-12-03T23:14:38.848Z,6.87
2018-12-03T23:17:06.379Z,7.13
2018-12-03T23:19:33.875Z,5.67
2018-12-03T23:22:01.369Z,9.07
2018-12-03T23:24:28.875Z,5.20
2018-12-03T23:26:56.365Z,6.27
2018-12-03T23:29:23.886Z,5.60
2018-12-03T23:31:51.377Z,3.70
2018-12-03T23:34:18.886Z,7.87
2018-12-03T23:36:46.386Z,6.03
2018-12-03T23:39:13.891Z,6.33
2018-12-03T23:41:41.453Z,10.90
2018-12-03T23:44:08.951Z,8.27
2018-12-03T23:46:37.309Z,6.10
2018-12-03T23:49:04.865Z,5.17
2018-12-03T23:51:36.158Z,9.07
2018-12-03T23:54:01.872Z,8.63
2018-12-03T23:56:29.395Z,7.07
2018-12-03T23:58:56.936Z,12.20
